sensor_id;sensor_type;location;lat;lon;timestamp;pressure;altitude;pressure_sealevel;temperature
31528;BMP280;10206;48.012;10.030;2023-04-25T00:00:01;94186.06;;;10.40
31528;BMP280;10206;48.012;10.030;2023-04-25T00:02:27;94187.97;;;10.28
31528;BMP280;10206;48.012;10.030;2023-04-25T00:04:54;94186.81;;;10.21
31528;BMP280;10206;48.012;10.030;2023-04-25T00:07:22;94180.34;;;10.36
31528;BMP280;10206;48.012;10.030;2023-04-25T00:09:49;94177.88;;;10.50
31528;BMP280;10206;48.012;10.030;2023-04-25T00:12:15;94181.34;;;10.41
31528;BMP280;10206;48.012;10.030;2023-04-25T00:14:41;94181.59;;;10.54
31528;BMP280;10206;48.012;10.030;2023-04-25T00:17:07;94179.44;;;10.53
31528;BMP280;10206;48.012;10.030;2023-04-25T00:19:33;94182.13;;;10.62
31528;BMP280;10206;48.012;10.030;2023-04-25T00:22:00;94186.28;;;10.63
31528;BMP280;10206;48.012;10.030;2023-04-25T00:24:26;94183.41;;;10.71
31528;BMP280;10206;48.012;10.030;2023-04-25T00:26:52;94181.69;;;10.66
31528;BMP280;10206;48.012;10.030;2023-04-25T00:29:19;94175.78;;;10.69
31528;BMP280;10206;48.012;10.030;2023-04-25T00:31:45;94174.94;;;10.67
31528;BMP280;10206;48.012;10.030;2023-04-25T00:34:11;94171.03;;;10.70
31528;BMP280;10206;48.012;10.030;2023-04-25T00:36:37;94171.50;;;10.66
31528;BMP280;10206;48.012;10.030;2023-04-25T00:39:04;94169.56;;;10.78
31528;BMP280;10206;48.012;10.030;2023-04-25T00:41:30;94164.75;;;10.67
31528;BMP280;10206;48.012;10.030;2023-04-25T00:43:57;94169.00;;;10.80
31528;BMP280;10206;48.012;10.030;2023-04-25T00:46:23;94156.09;;;10.80
31528;BMP280;10206;48.012;10.030;2023-04-25T00:48:49;94170.44;;;10.81
31528;BMP280;10206;48.012;10.030;2023-04-25T00:51:20;94186.09;;;10.80
31528;BMP280;10206;48.012;10.030;2023-04-25T00:53:47;94197.66;;;11.00
31528;BMP280;10206;48.012;10.030;2023-04-25T00:56:14;94175.34;;;10.73
31528;BMP280;10206;48.012;10.030;2023-04-25T00:58:41;94175.72;;;10.88
31528;BMP280;10206;48.012;10.030;2023-04-25T01:01:09;94180.75;;;10.52
31528;BMP280;10206;48.012;10.030;2023-04-25T01:03:38;94171.19;;;10.22
31528;BMP280;10206;48.012;10.030;2023-04-25T01:06:11;94167.13;;;10.52
31528;BMP280;10206;48.012;10.030;2023-04-25T01:08:39;94155.34;;;10.49
31528;BMP280;10206;48.012;10.030;2023-04-25T01:11:05;94171.47;;;10.76
31528;BMP280;10206;48.012;10.030;2023-04-25T01:13:33;94189.66;;;10.43
31528;BMP280;10206;48.012;10.030;2023-04-25T01:16:00;94210.66;;;9.73
31528;BMP280;10206;48.012;10.030;2023-04-25T01:18:27;94219.91;;;9.32
31528;BMP280;10206;48.012;10.030;2023-04-25T01:20:54;94194.44;;;9.01
31528;BMP280;10206;48.012;10.030;2023-04-25T01:23:21;94193.88;;;9.48
31528;BMP280;10206;48.012;10.030;2023-04-25T01:25:48;94182.72;;;9.08
31528;BMP280;10206;48.012;10.030;2023-04-25T01:28:15;94176.81;;;9.57
31528;BMP280;10206;48.012;10.030;2023-04-25T01:30:41;94178.53;;;9.62
31528;BMP280;10206;48.012;10.030;2023-04-25T01:33:08;94175.97;;;9.64
31528;BMP280;10206;48.012;10.030;2023-04-25T01:35:35;94172.25;;;9.69
31528;BMP280;10206;48.012;10.030;2023-04-25T01:38:01;94169.38;;;9.48
31528;BMP280;10206;48.012;10.030;2023-04-25T01:40:27;94169.38;;;9.48
31528;BMP280;10206;48.012;10.030;2023-04-25T01:42:54;94157.63;;;9.55
31528;BMP280;10206;48.012;10.030;2023-04-25T01:45:20;94157.63;;;9.55
31528;BMP280;10206;48.012;10.030;2023-04-25T01:47:47;94157.16;;;9.30
31528;BMP280;10206;48.012;10.030;2023-04-25T01:50:16;94152.81;;;9.17
31528;BMP280;10206;48.012;10.030;2023-04-25T01:52:43;94149.63;;;8.92
31528;BMP280;10206;48.012;10.030;2023-04-25T01:55:11;94148.66;;;9.07
31528;BMP280;10206;48.012;10.030;2023-04-25T01:57:37;94151.09;;;9.03
31528;BMP280;10206;48.012;10.030;2023-04-25T02:00:06;94143.16;;;8.87
31528;BMP280;10206;48.012;10.030;2023-04-25T02:02:32;94145.47;;;9.01
31528;BMP280;10206;48.012;10.030;2023-04-25T02:04:58;94138.94;;;9.04
31528;BMP280;10206;48.012;10.030;2023-04-25T02:07:25;94138.38;;;8.78
31528;BMP280;10206;48.012;10.030;2023-04-25T02:09:52;94140.88;;;8.84
31528;BMP280;10206;48.012;10.030;2023-04-25T02:12:18;94140.88;;;8.84
31528;BMP280;10206;48.012;10.030;2023-04-25T02:14:44;94140.75;;;9.01
31528;BMP280;10206;48.012;10.030;2023-04-25T02:17:10;94141.34;;;9.00
31528;BMP280;10206;48.012;10.030;2023-04-25T02:19:38;94140.63;;;9.09
31528;BMP280;10206;48.012;10.030;2023-04-25T02:22:04;94132.34;;;9.07
31528;BMP280;10206;48.012;10.030;2023-04-25T02:24:30;94143.38;;;9.18
31528;BMP280;10206;48.012;10.030;2023-04-25T02:26:57;94140.59;;;8.89
31528;BMP280;10206;48.012;10.030;2023-04-25T02:29:23;94135.59;;;8.86
31528;BMP280;10206;48.012;10.030;2023-04-25T02:31:49;94137.06;;;9.16
31528;BMP280;10206;48.012;10.030;2023-04-25T02:34:16;94135.94;;;9.19
31528;BMP280;10206;48.012;10.030;2023-04-25T02:36:42;94139.78;;;9.16
31528;BMP280;10206;48.012;10.030;2023-04-25T02:39:08;94139.66;;;9.23
31528;BMP280;10206;48.012;10.030;2023-04-25T02:41:34;94134.25;;;9.33
31528;BMP280;10206;48.012;10.030;2023-04-25T02:44:00;94129.66;;;9.26
31528;BMP280;10206;48.012;10.030;2023-04-25T02:46:26;94129.06;;;9.27
31528;BMP280;10206;48.012;10.030;2023-04-25T02:48:52;94124.94;;;9.55
31528;BMP280;10206;48.012;10.030;2023-04-25T02:51:18;94116.47;;;9.60
31528;BMP280;10206;48.012;10.030;2023-04-25T02:53:44;94114.75;;;9.55
31528;BMP280;10206;48.012;10.030;2023-04-25T02:56:10;94114.06;;;9.45
31528;BMP280;10206;48.012;10.030;2023-04-25T02:58:37;94119.50;;;9.55
31528;BMP280;10206;48.012;10.030;2023-04-25T03:01:03;94114.06;;;9.45
31528;BMP280;10206;48.012;10.030;2023-04-25T03:03:29;94120.94;;;9.56
31528;BMP280;10206;48.012;10.030;2023-04-25T03:05:55;94116.34;;;9.58
31528;BMP280;10206;48.012;10.030;2023-04-25T03:08:21;94116.06;;;9.64
31528;BMP280;10206;48.012;10.030;2023-04-25T03:10:48;94116.63;;;9.53
31528;BMP280;10206;48.012;10.030;2023-04-25T03:13:16;94123.81;;;9.68
31528;BMP280;10206;48.012;10.030;2023-04-25T03:15:42;94114.19;;;9.67
31528;BMP280;10206;48.012;10.030;2023-04-25T03:18:08;94110.75;;;9.66
31528;BMP280;10206;48.012;10.030;2023-04-25T03:20:34;94110.44;;;9.72
31528;BMP280;10206;48.012;10.030;2023-04-25T03:23:00;94110.75;;;9.76
31528;BMP280;10206;48.012;10.030;2023-04-25T03:25:26;94113.91;;;9.72
31528;BMP280;10206;48.012;10.030;2023-04-25T03:27:52;94107.72;;;9.62
31528;BMP280;10206;48.012;10.030;2023-04-25T03:30:18;94111.16;;;9.72
31528;BMP280;10206;48.012;10.030;2023-04-25T03:32:44;94100.03;;;9.68
31528;BMP280;10206;48.012;10.030;2023-04-25T03:35:10;94104.88;;;9.70
31528;BMP280;10206;48.012;10.030;2023-04-25T03:37:36;94105.19;;;9.64
31528;BMP280;10206;48.012;10.030;2023-04-25T03:40:03;94109.75;;;9.52
31528;BMP280;10206;48.012;10.030;2023-04-25T03:42:29;94115.47;;;9.37
31528;BMP280;10206;48.012;10.030;2023-04-25T03:44:55;94118.38;;;9.58
31528;BMP280;10206;48.012;10.030;2023-04-25T03:47:21;94120.22;;;9.84
31528;BMP280;10206;48.012;10.030;2023-04-25T03:49:48;94115.41;;;8.99
31528;BMP280;10206;48.012;10.030;2023-04-25T03:52:15;94120.34;;;9.19
31528;BMP280;10206;48.012;10.030;2023-04-25T03:54:41;94121.22;;;9.70
31528;BMP280;10206;48.012;10.030;2023-04-25T03:57:07;94112.31;;;9.79
31528;BMP280;10206;48.012;10.030;2023-04-25T03:59:33;94118.19;;;9.75
31528;BMP280;10206;48.012;10.030;2023-04-25T04:01:59;94114.19;;;9.47
31528;BMP280;10206;48.012;10.030;2023-04-25T04:04:25;94121.50;;;9.54
31528;BMP280;10206;48.012;10.030;2023-04-25T04:06:51;94119.50;;;9.55
31528;BMP280;10206;48.012;10.030;2023-04-25T04:09:18;94122.38;;;9.57
31528;BMP280;10206;48.012;10.030;2023-04-25T04:11:46;94125.22;;;9.40
31528;BMP280;10206;48.012;10.030;2023-04-25T04:14:12;94131.53;;;9.52
31528;BMP280;10206;48.012;10.030;2023-04-25T04:16:38;94133.25;;;9.57
31528;BMP280;10206;48.012;10.030;2023-04-25T04:19:04;94134.25;;;9.52
31528;BMP280;10206;48.012;10.030;2023-04-25T04:21:31;94134.25;;;9.52
31528;BMP280;10206;48.012;10.030;2023-04-25T04:23:57;94125.22;;;9.59
31528;BMP280;10206;48.012;10.030;2023-04-25T04:26:25;94120.22;;;9.65
31528;BMP280;10206;48.012;10.030;2023-04-25T04:28:53;94127.22;;;9.49
31528;BMP280;10206;48.012;10.030;2023-04-25T04:31:22;94126.53;;;9.48
31528;BMP280;10206;48.012;10.030;2023-04-25T04:33:48;94130.41;;;9.55
31528;BMP280;10206;48.012;10.030;2023-04-25T04:36:14;94119.06;;;9.58
31528;BMP280;10206;48.012;10.030;2023-04-25T04:38:41;94127.94;;;9.49
31528;BMP280;10206;48.012;10.030;2023-04-25T04:41:08;94129.69;;;9.74
31528;BMP280;10206;48.012;10.030;2023-04-25T04:43:34;94132.94;;;9.82
31528;BMP280;10206;48.012;10.030;2023-04-25T04:46:03;94134.25;;;9.62
31528;BMP280;10206;48.012;10.030;2023-04-25T04:48:33;94136.84;;;9.69
31528;BMP280;10206;48.012;10.030;2023-04-25T04:51:00;94136.81;;;9.88
31528;BMP280;10206;48.012;10.030;2023-04-25T04:53:26;94130.50;;;9.95
31528;BMP280;10206;48.012;10.030;2023-04-25T04:55:52;94132.53;;;9.85
31528;BMP280;10206;48.012;10.030;2023-04-25T04:58:19;94133.34;;;9.97
31528;BMP280;10206;48.012;10.030;2023-04-25T05:00:45;94131.53;;;10.00
31528;BMP280;10206;48.012;10.030;2023-04-25T05:03:12;94129.03;;;10.13
31528;BMP280;10206;48.012;10.030;2023-04-25T05:05:38;94141.34;;;10.24
31528;BMP280;10206;48.012;10.030;2023-04-25T05:08:06;94135.75;;;10.22
31528;BMP280;10206;48.012;10.030;2023-04-25T05:10:32;94135.75;;;10.22
31528;BMP280;10206;48.012;10.030;2023-04-25T05:12:58;94132.91;;;10.10
31528;BMP280;10206;48.012;10.030;2023-04-25T05:15:24;94135.63;;;10.20
31528;BMP280;10206;48.012;10.030;2023-04-25T05:17:50;94138.44;;;10.41
31528;BMP280;10206;48.012;10.030;2023-04-25T05:20:17;94135.69;;;10.51
31528;BMP280;10206;48.012;10.030;2023-04-25T05:22:44;94131.94;;;10.46
31528;BMP280;10206;48.012;10.030;2023-04-25T05:25:11;94129.19;;;10.56
31528;BMP280;10206;48.012;10.030;2023-04-25T05:27:37;94135.13;;;10.43
31528;BMP280;10206;48.012;10.030;2023-04-25T05:30:04;94123.56;;;10.23
31528;BMP280;10206;48.012;10.030;2023-04-25T05:32:31;94126.94;;;10.43
31528;BMP280;10206;48.012;10.030;2023-04-25T05:34:57;94112.69;;;10.54
31528;BMP280;10206;48.012;10.030;2023-04-25T05:37:23;94116.66;;;10.62
31528;BMP280;10206;48.012;10.030;2023-04-25T05:39:49;94115.34;;;10.73
31528;BMP280;10206;48.012;10.030;2023-04-25T05:42:15;94125.13;;;10.97
31528;BMP280;10206;48.012;10.030;2023-04-25T05:44:42;94124.75;;;11.33
31528;BMP280;10206;48.012;10.030;2023-04-25T05:47:08;94127.22;;;11.50
31528;BMP280;10206;48.012;10.030;2023-04-25T05:49:34;94119.69;;;11.72
31528;BMP280;10206;48.012;10.030;2023-04-25T05:52:00;94115.03;;;11.63
31528;BMP280;10206;48.012;10.030;2023-04-25T05:54:27;94110.75;;;12.04
31528;BMP280;10206;48.012;10.030;2023-04-25T05:56:53;94116.88;;;12.49
31528;BMP280;10206;48.012;10.030;2023-04-25T05:59:19;94117.34;;;12.45
31528;BMP280;10206;48.012;10.030;2023-04-25T06:01:45;94112.31;;;12.88
31528;BMP280;10206;48.012;10.030;2023-04-25T06:04:12;94118.91;;;13.20
31528;BMP280;10206;48.012;10.030;2023-04-25T06:06:38;94113.78;;;12.55
31528;BMP280;10206;48.012;10.030;2023-04-25T06:09:04;94112.09;;;12.84
31528;BMP280;10206;48.012;10.030;2023-04-25T06:11:30;94111.56;;;13.22
31528;BMP280;10206;48.012;10.030;2023-04-25T06:13:56;94112.47;;;13.27
31528;BMP280;10206;48.012;10.030;2023-04-25T06:16:22;94114.22;;;13.71
31528;BMP280;10206;48.012;10.030;2023-04-25T06:18:51;94121.63;;;13.68
31528;BMP280;10206;48.012;10.030;2023-04-25T06:21:17;94118.06;;;13.66
31528;BMP280;10206;48.012;10.030;2023-04-25T06:23:43;94116.06;;;13.30
31528;BMP280;10206;48.012;10.030;2023-04-25T06:26:09;94114.88;;;13.58
31528;BMP280;10206;48.012;10.030;2023-04-25T06:28:36;94118.88;;;13.93
31528;BMP280;10206;48.012;10.030;2023-04-25T06:31:02;94110.47;;;13.53
31528;BMP280;10206;48.012;10.030;2023-04-25T06:33:28;94108.94;;;13.13
31528;BMP280;10206;48.012;10.030;2023-04-25T06:35:54;94108.63;;;13.44
31528;BMP280;10206;48.012;10.030;2023-04-25T06:38:20;94103.53;;;12.90
31528;BMP280;10206;48.012;10.030;2023-04-25T06:40:46;94105.84;;;13.80
31528;BMP280;10206;48.012;10.030;2023-04-25T06:43:13;94100.75;;;13.75
31528;BMP280;10206;48.012;10.030;2023-04-25T06:45:39;94103.28;;;14.10
31528;BMP280;10206;48.012;10.030;2023-04-25T06:48:05;94100.19;;;14.69
31528;BMP280;10206;48.012;10.030;2023-04-25T06:50:31;94100.56;;;14.23
31528;BMP280;10206;48.012;10.030;2023-04-25T06:52:57;94106.09;;;13.98
31528;BMP280;10206;48.012;10.030;2023-04-25T06:55:23;94098.03;;;13.63
31528;BMP280;10206;48.012;10.030;2023-04-25T06:57:49;94103.34;;;14.50
31528;BMP280;10206;48.012;10.030;2023-04-25T07:00:16;94103.16;;;14.07
31528;BMP280;10206;48.012;10.030;2023-04-25T07:02:42;94097.53;;;14.58
31528;BMP280;10206;48.012;10.030;2023-04-25T07:05:09;94094.34;;;13.84
31528;BMP280;10206;48.012;10.030;2023-04-25T07:07:35;94093.66;;;14.49
31528;BMP280;10206;48.012;10.030;2023-04-25T07:10:01;94097.28;;;15.22
31528;BMP280;10206;48.012;10.030;2023-04-25T07:12:27;94084.31;;;14.95
31528;BMP280;10206;48.012;10.030;2023-04-25T07:14:53;94090.41;;;15.36
31528;BMP280;10206;48.012;10.030;2023-04-25T07:17:20;94089.34;;;15.28
31528;BMP280;10206;48.012;10.030;2023-04-25T07:19:46;94095.75;;;15.19
31528;BMP280;10206;48.012;10.030;2023-04-25T07:22:12;94094.09;;;15.56
31528;BMP280;10206;48.012;10.030;2023-04-25T07:24:38;94093.19;;;14.53
31528;BMP280;10206;48.012;10.030;2023-04-25T07:27:04;94092.84;;;14.88
31528;BMP280;10206;48.012;10.030;2023-04-25T07:29:31;94086.53;;;14.71
31528;BMP280;10206;48.012;10.030;2023-04-25T07:31:57;94080.38;;;14.71
31528;BMP280;10206;48.012;10.030;2023-04-25T07:34:23;94091.97;;;14.69
31528;BMP280;10206;48.012;10.030;2023-04-25T07:36:49;94091.63;;;15.04
31528;BMP280;10206;48.012;10.030;2023-04-25T07:39:16;94092.09;;;15.14
31528;BMP280;10206;48.012;10.030;2023-04-25T07:41:42;94094.56;;;15.08
31528;BMP280;10206;48.012;10.030;2023-04-25T07:44:08;94088.31;;;14.51
31528;BMP280;10206;48.012;10.030;2023-04-25T07:46:34;94083.00;;;14.55
31528;BMP280;10206;48.012;10.030;2023-04-25T07:49:00;94084.44;;;15.26
31528;BMP280;10206;48.012;10.030;2023-04-25T07:51:26;94086.56;;;14.44
31528;BMP280;10206;48.012;10.030;2023-04-25T07:53:53;94091.56;;;14.48
31528;BMP280;10206;48.012;10.030;2023-04-25T07:56:19;94095.22;;;14.93
31528;BMP280;10206;48.012;10.030;2023-04-25T07:58:45;94091.88;;;14.67
31528;BMP280;10206;48.012;10.030;2023-04-25T08:01:11;94088.97;;;14.25
31528;BMP280;10206;48.012;10.030;2023-04-25T08:03:37;94094.66;;;14.42
31528;BMP280;10206;48.012;10.030;2023-04-25T08:06:03;94090.63;;;14.57
31528;BMP280;10206;48.012;10.030;2023-04-25T08:08:30;94085.81;;;13.78
31528;BMP280;10206;48.012;10.030;2023-04-25T08:10:56;94094.16;;;14.32
31528;BMP280;10206;48.012;10.030;2023-04-25T08:13:22;94093.13;;;13.73
31528;BMP280;10206;48.012;10.030;2023-04-25T08:15:48;94092.41;;;13.48
31528;BMP280;10206;48.012;10.030;2023-04-25T08:18:14;94094.94;;;14.07
31528;BMP280;10206;48.012;10.030;2023-04-25T08:20:40;94100.19;;;14.29
31528;BMP280;10206;48.012;10.030;2023-04-25T08:23:06;94097.25;;;13.61
31528;BMP280;10206;48.012;10.030;2023-04-25T08:25:32;94113.34;;;14.05
31528;BMP280;10206;48.012;10.030;2023-04-25T08:27:58;94102.00;;;14.24
31528;BMP280;10206;48.012;10.030;2023-04-25T08:30:25;94107.81;;;14.30
31528;BMP280;10206;48.012;10.030;2023-04-25T08:32:52;94110.13;;;14.49
31528;BMP280;10206;48.012;10.030;2023-04-25T08:35:19;94117.50;;;14.20
31528;BMP280;10206;48.012;10.030;2023-04-25T08:37:46;94113.34;;;14.19
31528;BMP280;10206;48.012;10.030;2023-04-25T08:40:14;94112.38;;;13.87
31528;BMP280;10206;48.012;10.030;2023-04-25T08:42:42;94116.88;;;14.07
31528;BMP280;10206;48.012;10.030;2023-04-25T08:45:09;94133.16;;;14.17
31528;BMP280;10206;48.012;10.030;2023-04-25T08:47:38;94136.94;;;14.24
31528;BMP280;10206;48.012;10.030;2023-04-25T08:50:05;94139.59;;;14.49
31528;BMP280;10206;48.012;10.030;2023-04-25T08:52:37;94135.06;;;13.51
31528;BMP280;10206;48.012;10.030;2023-04-25T08:55:05;94145.63;;;13.08
31528;BMP280;10206;48.012;10.030;2023-04-25T08:57:34;94154.44;;;12.37
31528;BMP280;10206;48.012;10.030;2023-04-25T09:00:01;94161.09;;;12.34
31528;BMP280;10206;48.012;10.030;2023-04-25T09:02:30;94181.50;;;12.10
31528;BMP280;10206;48.012;10.030;2023-04-25T09:04:56;94194.09;;;11.82
31528;BMP280;10206;48.012;10.030;2023-04-25T09:07:23;94191.59;;;11.01
31528;BMP280;10206;48.012;10.030;2023-04-25T09:09:49;94203.81;;;11.52
31528;BMP280;10206;48.012;10.030;2023-04-25T09:12:16;94215.94;;;11.40
31528;BMP280;10206;48.012;10.030;2023-04-25T09:17:58;94230.16;;;11.17
31528;BMP280;10206;48.012;10.030;2023-04-25T09:20:25;94233.84;;;10.51
31528;BMP280;10206;48.012;10.030;2023-04-25T09:23:02;94239.22;;;10.70
31528;BMP280;10206;48.012;10.030;2023-04-25T09:25:37;94242.44;;;10.57
31528;BMP280;10206;48.012;10.030;2023-04-25T09:28:06;94253.09;;;10.34
31528;BMP280;10206;48.012;10.030;2023-04-25T09:30:33;94249.34;;;10.39
31528;BMP280;10206;48.012;10.030;2023-04-25T09:33:27;94251.06;;;9.96
31528;BMP280;10206;48.012;10.030;2023-04-25T09:35:53;94248.22;;;10.13
31528;BMP280;10206;48.012;10.030;2023-04-25T09:38:21;94252.38;;;9.85
31528;BMP280;10206;48.012;10.030;2023-04-25T09:40:47;94248.50;;;10.17
31528;BMP280;10206;48.012;10.030;2023-04-25T09:43:22;94260.13;;;10.27
31528;BMP280;10206;48.012;10.030;2023-04-25T09:45:49;94252.53;;;10.25
31528;BMP280;10206;48.012;10.030;2023-04-25T09:48:21;94252.66;;;9.89
31528;BMP280;10206;48.012;10.030;2023-04-25T09:51:08;94257.38;;;9.89
31528;BMP280;10206;48.012;10.030;2023-04-25T09:53:36;94267.09;;;10.59
31528;BMP280;10206;48.012;10.030;2023-04-25T09:56:05;94259.81;;;11.01
31528;BMP280;10206;48.012;10.030;2023-04-25T09:58:33;94265.09;;;10.69
31528;BMP280;10206;48.012;10.030;2023-04-25T10:01:05;94273.03;;;10.26
31528;BMP280;10206;48.012;10.030;2023-04-25T10:03:33;94273.31;;;10.02
31528;BMP280;10206;48.012;10.030;2023-04-25T10:06:05;94275.19;;;10.28
31528;BMP280;10206;48.012;10.030;2023-04-25T10:08:34;94276.19;;;10.42
31528;BMP280;10206;48.012;10.030;2023-04-25T10:11:04;94282.06;;;10.39
31528;BMP280;10206;48.012;10.030;2023-04-25T10:13:32;94277.63;;;10.34
31528;BMP280;10206;48.012;10.030;2023-04-25T10:16:03;94276.28;;;10.63
31528;BMP280;10206;48.012;10.030;2023-04-25T10:18:30;94280.16;;;10.70
31528;BMP280;10206;48.012;10.030;2023-04-25T10:20:58;94283.75;;;10.63
31528;BMP280;10206;48.012;10.030;2023-04-25T10:23:25;94284.38;;;10.33
31528;BMP280;10206;48.012;10.030;2023-04-25T10:25:52;94280.19;;;10.60
31528;BMP280;10206;48.012;10.030;2023-04-25T10:28:21;94278.56;;;10.76
31528;BMP280;10206;48.012;10.030;2023-04-25T10:31:08;94278.16;;;11.11
31528;BMP280;10206;48.012;10.030;2023-04-25T10:33:39;94275.84;;;11.68
31528;BMP280;10206;48.012;10.030;2023-04-25T10:36:19;94276.38;;;12.19
31528;BMP280;10206;48.012;10.030;2023-04-25T10:38:48;94275.69;;;12.30
31528;BMP280;10206;48.012;10.030;2023-04-25T10:41:19;94268.78;;;11.75
31528;BMP280;10206;48.012;10.030;2023-04-25T10:43:47;94274.28;;;12.08
31528;BMP280;10206;48.012;10.030;2023-04-25T10:46:26;94270.63;;;12.03
31528;BMP280;10206;48.012;10.030;2023-04-25T10:49:00;94263.44;;;11.98
31528;BMP280;10206;48.012;10.030;2023-04-25T10:51:32;94265.25;;;11.84
31528;BMP280;10206;48.012;10.030;2023-04-25T10:54:04;94272.03;;;12.37
31528;BMP280;10206;48.012;10.030;2023-04-25T10:56:38;94262.34;;;12.57
31528;BMP280;10206;48.012;10.030;2023-04-25T10:59:16;94264.66;;;12.39
31528;BMP280;10206;48.012;10.030;2023-04-25T11:01:51;94269.28;;;12.04
31528;BMP280;10206;48.012;10.030;2023-04-25T11:04:31;94271.22;;;11.81
31528;BMP280;10206;48.012;10.030;2023-04-25T11:09:38;94269.00;;;11.06
31528;BMP280;10206;48.012;10.030;2023-04-25T11:12:06;94279.53;;;11.31
31528;BMP280;10206;48.012;10.030;2023-04-25T11:14:33;94271.31;;;11.61
31528;BMP280;10206;48.012;10.030;2023-04-25T11:16:59;94276.63;;;11.38
31528;BMP280;10206;48.012;10.030;2023-04-25T11:19:28;94281.97;;;10.96
31528;BMP280;10206;48.012;10.030;2023-04-25T11:22:02;94282.84;;;10.89
31528;BMP280;10206;48.012;10.030;2023-04-25T11:24:32;94287.28;;;11.55
31528;BMP280;10206;48.012;10.030;2023-04-25T11:27:03;94294.03;;;11.64
31528;BMP280;10206;48.012;10.030;2023-04-25T11:29:31;94290.00;;;11.34
31528;BMP280;10206;48.012;10.030;2023-04-25T11:31:58;94300.66;;;11.30
31528;BMP280;10206;48.012;10.030;2023-04-25T11:34:25;94297.78;;;11.28
31528;BMP280;10206;48.012;10.030;2023-04-25T11:36:52;94300.72;;;11.51
31528;BMP280;10206;48.012;10.030;2023-04-25T11:39:21;94304.88;;;11.12
31528;BMP280;10206;48.012;10.030;2023-04-25T11:41:49;94304.03;;;11.10
31528;BMP280;10206;48.012;10.030;2023-04-25T11:44:17;94300.47;;;10.97
31528;BMP280;10206;48.012;10.030;2023-04-25T11:46:46;94302.19;;;10.93
31528;BMP280;10206;48.012;10.030;2023-04-25T11:49:13;94312.53;;;10.94
31528;BMP280;10206;48.012;10.030;2023-04-25T11:51:46;94314.00;;;11.26
31528;BMP280;10206;48.012;10.030;2023-04-25T11:54:13;94325.56;;;11.15
31528;BMP280;10206;48.012;10.030;2023-04-25T11:56:43;94320.34;;;10.69
31528;BMP280;10206;48.012;10.030;2023-04-25T11:59:09;94318.91;;;10.30
31528;BMP280;10206;48.012;10.030;2023-04-25T12:01:37;94325.09;;;10.59
31528;BMP280;10206;48.012;10.030;2023-04-25T12:04:13;94333.00;;;10.74
31528;BMP280;10206;48.012;10.030;2023-04-25T12:06:42;94326.88;;;11.05
31528;BMP280;10206;48.012;10.030;2023-04-25T12:09:09;94331.38;;;10.90
31528;BMP280;10206;48.012;10.030;2023-04-25T12:11:43;94329.81;;;11.37
31528;BMP280;10206;48.012;10.030;2023-04-25T12:14:10;94324.13;;;11.14
31528;BMP280;10206;48.012;10.030;2023-04-25T12:16:46;94329.81;;;11.37
31528;BMP280;10206;48.012;10.030;2023-04-25T12:19:16;94325.72;;;11.48
31528;BMP280;10206;48.012;10.030;2023-04-25T12:21:43;94329.97;;;11.30
31528;BMP280;10206;48.012;10.030;2023-04-25T12:24:17;94328.31;;;11.06
31528;BMP280;10206;48.012;10.030;2023-04-25T12:29:27;94340.56;;;12.18
31528;BMP280;10206;48.012;10.030;2023-04-25T12:31:54;94339.91;;;11.87
31528;BMP280;10206;48.012;10.030;2023-04-25T12:34:22;94339.59;;;12.46
31528;BMP280;10206;48.012;10.030;2023-04-25T12:36:49;94342.78;;;12.64
31528;BMP280;10206;48.012;10.030;2023-04-25T12:39:23;94354.59;;;12.78
31528;BMP280;10206;48.012;10.030;2023-04-25T12:41:50;94341.59;;;12.99
31528;BMP280;10206;48.012;10.030;2023-04-25T12:44:21;94336.31;;;12.92
31528;BMP280;10206;48.012;10.030;2023-04-25T12:46:47;94344.06;;;12.51
31528;BMP280;10206;48.012;10.030;2023-04-25T12:49:14;94346.31;;;11.91
31528;BMP280;10206;48.012;10.030;2023-04-25T12:51:40;94354.88;;;12.28
31528;BMP280;10206;48.012;10.030;2023-04-25T12:54:07;94348.63;;;12.70
31528;BMP280;10206;48.012;10.030;2023-04-25T12:56:34;94359.16;;;12.85
31528;BMP280;10206;48.012;10.030;2023-04-25T12:59:01;94360.19;;;13.36
31528;BMP280;10206;48.012;10.030;2023-04-25T13:01:29;94362.44;;;12.72
31528;BMP280;10206;48.012;10.030;2023-04-25T13:03:55;94358.66;;;12.44
31528;BMP280;10206;48.012;10.030;2023-04-25T13:06:22;94364.13;;;12.23
31528;BMP280;10206;48.012;10.030;2023-04-25T13:08:48;94360.09;;;11.41
31528;BMP280;10206;48.012;10.030;2023-04-25T13:11:14;94362.88;;;11.93
31528;BMP280;10206;48.012;10.030;2023-04-25T13:13:41;94370.88;;;12.43
31528;BMP280;10206;48.012;10.030;2023-04-25T13:16:07;94369.00;;;12.45
31528;BMP280;10206;48.012;10.030;2023-04-25T13:18:34;94367.97;;;12.51
31528;BMP280;10206;48.012;10.030;2023-04-25T13:21:01;94371.53;;;12.86
31528;BMP280;10206;48.012;10.030;2023-04-25T13:23:28;94373.09;;;12.14
31528;BMP280;10206;48.012;10.030;2023-04-25T13:25:55;94371.63;;;12.76
31528;BMP280;10206;48.012;10.030;2023-04-25T13:28:23;94387.34;;;12.55
31528;BMP280;10206;48.012;10.030;2023-04-25T13:30:50;94384.09;;;12.25
31528;BMP280;10206;48.012;10.030;2023-04-25T13:33:18;94387.59;;;11.74
31528;BMP280;10206;48.012;10.030;2023-04-25T13:35:44;94386.50;;;11.08
31528;BMP280;10206;48.012;10.030;2023-04-25T13:38:20;94397.06;;;11.73
31528;BMP280;10206;48.012;10.030;2023-04-25T13:40:46;94397.63;;;11.71
31528;BMP280;10206;48.012;10.030;2023-04-25T13:43:12;94406.09;;;11.45
31528;BMP280;10206;48.012;10.030;2023-04-25T13:45:39;94402.28;;;11.19
31528;BMP280;10206;48.012;10.030;2023-04-25T13:48:06;94407.97;;;11.33
31528;BMP280;10206;48.012;10.030;2023-04-25T13:50:32;94406.41;;;11.70
31528;BMP280;10206;48.012;10.030;2023-04-25T13:52:58;94398.59;;;11.86
31528;BMP280;10206;48.012;10.030;2023-04-25T13:55:25;94412.31;;;11.97
31528;BMP280;10206;48.012;10.030;2023-04-25T13:57:52;94411.78;;;12.41
31528;BMP280;10206;48.012;10.030;2023-04-25T14:00:18;94407.41;;;13.13
31528;BMP280;10206;48.012;10.030;2023-04-25T14:02:44;94417.38;;;12.64
31528;BMP280;10206;48.012;10.030;2023-04-25T14:05:10;94427.81;;;12.89
31528;BMP280;10206;48.012;10.030;2023-04-25T14:07:37;94421.28;;;12.40